sensor_id;sensor_type;location;lat;lon;timestamp;P1;durP1;ratioP1;P2;durP2;ratioP2
40991;SDS011;29633;49.168;9.848;2022-07-12T00:02:01;1.40;;;0.32;;
40991;SDS011;29633;49.168;9.848;2022-07-12T00:04:27;0.40;;;0.40;;
40991;SDS011;29633;49.168;9.848;2022-07-12T00:06:53;0.60;;;0.40;;
40991;SDS011;29633;49.168;9.848;2022-07-12T00:09:19;0.60;;;0.50;;
40991;SDS011;29633;49.168;9.848;2022-07-12T00:11:45;0.40;;;0.40;;
40991;SDS011;29633;49.168;9.848;2022-07-12T00:14:11;0.40;;;0.40;;
40991;SDS011;29633;49.168;9.848;2022-07-12T00:16:37;0.43;;;0.43;;
40991;SDS011;29633;49.168;9.848;2022-07-12T00:19:02;0.40;;;0.40;;
40991;SDS011;29633;49.168;9.848;2022-07-12T00:21:28;0.38;;;0.38;;
40991;SDS011;29633;49.168;9.848;2022-07-12T00:23:54;0.88;;;0.50;;
40991;SDS011;29633;49.168;9.848;2022-07-12T00:26:20;0.50;;;0.47;;
40991;SDS011;29633;49.168;9.848;2022-07-12T00:28:45;0.50;;;0.45;;
40991;SDS011;29633;49.168;9.848;2022-07-12T00:31:12;1.60;;;0.38;;
40991;SDS011;29633;49.168;9.848;2022-07-12T00:33:38;1.85;;;0.52;;
40991;SDS011;29633;49.168;9.848;2022-07-12T00:36:04;0.85;;;0.50;;
40991;SDS011;29633;49.168;9.848;2022-07-12T00:38:30;0.70;;;0.50;;
40991;SDS011;29633;49.168;9.848;2022-07-12T00:40:56;0.52;;;0.52;;
40991;SDS011;29633;49.168;9.848;2022-07-12T00:43:22;0.73;;;0.60;;
40991;SDS011;29633;49.168;9.848;2022-07-12T00:45:47;0.82;;;0.50;;
40991;SDS011;29633;49.168;9.848;2022-07-12T00:48:13;0.70;;;0.52;;
40991;SDS011;29633;49.168;9.848;2022-07-12T00:50:43;0.80;;;0.50;;
40991;SDS011;29633;49.168;9.848;2022-07-12T00:53:13;1.00;;;0.70;;
40991;SDS011;29633;49.168;9.848;2022-07-12T00:55:39;1.15;;;0.88;;
40991;SDS011;29633;49.168;9.848;2022-07-12T00:58:05;2.22;;;0.75;;
40991;SDS011;29633;49.168;9.848;2022-07-12T01:00:31;1.15;;;0.80;;
40991;SDS011;29633;49.168;9.848;2022-07-12T01:02:57;1.65;;;0.90;;
40991;SDS011;29633;49.168;9.848;2022-07-12T01:05:26;1.73;;;0.80;;
40991;SDS011;29633;49.168;9.848;2022-07-12T01:07:53;1.10;;;0.77;;
40991;SDS011;29633;49.168;9.848;2022-07-12T01:10:20;1.17;;;0.90;;
40991;SDS011;29633;49.168;9.848;2022-07-12T01:12:46;1.23;;;0.80;;
40991;SDS011;29633;49.168;9.848;2022-07-12T01:15:13;1.23;;;1.00;;
40991;SDS011;29633;49.168;9.848;2022-07-12T01:17:39;2.05;;;1.10;;
40991;SDS011;29633;49.168;9.848;2022-07-12T01:20:05;1.52;;;0.88;;
40991;SDS011;29633;49.168;9.848;2022-07-12T01:22:35;1.58;;;0.90;;
40991;SDS011;29633;49.168;9.848;2022-07-12T01:25:06;1.02;;;0.90;;
40991;SDS011;29633;49.168;9.848;2022-07-12T01:27:32;0.98;;;0.88;;
40991;SDS011;29633;49.168;9.848;2022-07-12T01:30:00;0.90;;;0.70;;
40991;SDS011;29633;49.168;9.848;2022-07-12T01:32:30;0.95;;;0.68;;
40991;SDS011;29633;49.168;9.848;2022-07-12T01:34:57;0.70;;;0.70;;
40991;SDS011;29633;49.168;9.848;2022-07-12T01:37:31;0.70;;;0.70;;
40991;SDS011;29633;49.168;9.848;2022-07-12T01:40:00;1.20;;;1.00;;
40991;SDS011;29633;49.168;9.848;2022-07-12T01:42:30;1.42;;;0.95;;
40991;SDS011;29633;49.168;9.848;2022-07-12T01:44:57;0.90;;;0.80;;
40991;SDS011;29633;49.168;9.848;2022-07-12T01:47:23;1.08;;;0.88;;
40991;SDS011;29633;49.168;9.848;2022-07-12T01:49:52;1.23;;;0.85;;
40991;SDS011;29633;49.168;9.848;2022-07-12T01:52:19;1.10;;;0.70;;
40991;SDS011;29633;49.168;9.848;2022-07-12T01:54:45;1.45;;;1.02;;
40991;SDS011;29633;49.168;9.848;2022-07-12T01:57:11;2.10;;;1.05;;
40991;SDS011;29633;49.168;9.848;2022-07-12T01:59:39;1.55;;;1.08;;
40991;SDS011;29633;49.168;9.848;2022-07-12T02:02:06;2.35;;;1.20;;
40991;SDS011;29633;49.168;9.848;2022-07-12T02:04:35;2.25;;;1.30;;
40991;SDS011;29633;49.168;9.848;2022-07-12T02:07:01;2.40;;;1.33;;
40991;SDS011;29633;49.168;9.848;2022-07-12T02:09:29;2.20;;;1.30;;
40991;SDS011;29633;49.168;9.848;2022-07-12T02:11:54;1.90;;;1.27;;
40991;SDS011;29633;49.168;9.848;2022-07-12T02:14:20;2.95;;;1.40;;
40991;SDS011;29633;49.168;9.848;2022-07-12T02:16:46;1.95;;;1.20;;
40991;SDS011;29633;49.168;9.848;2022-07-12T02:19:12;1.40;;;1.08;;
40991;SDS011;29633;49.168;9.848;2022-07-12T02:21:39;3.00;;;1.48;;
40991;SDS011;29633;49.168;9.848;2022-07-12T02:24:06;3.50;;;1.13;;
40991;SDS011;29633;49.168;9.848;2022-07-12T02:26:32;2.28;;;1.25;;
40991;SDS011;29633;49.168;9.848;2022-07-12T02:29:00;3.25;;;1.17;;
40991;SDS011;29633;49.168;9.848;2022-07-12T02:31:30;1.30;;;1.20;;
40991;SDS011;29633;49.168;9.848;2022-07-12T02:33:56;0.88;;;0.80;;
40991;SDS011;29633;49.168;9.848;2022-07-12T02:36:22;1.52;;;0.75;;
40991;SDS011;29633;49.168;9.848;2022-07-12T02:38:49;3.55;;;1.02;;
40991;SDS011;29633;49.168;9.848;2022-07-12T02:41:14;0.95;;;0.70;;
40991;SDS011;29633;49.168;9.848;2022-07-12T02:43:40;1.33;;;0.80;;
40991;SDS011;29633;49.168;9.848;2022-07-12T02:46:07;1.52;;;0.82;;
40991;SDS011;29633;49.168;9.848;2022-07-12T02:48:36;1.00;;;0.70;;
40991;SDS011;29633;49.168;9.848;2022-07-12T02:51:02;0.95;;;0.73;;
40991;SDS011;29633;49.168;9.848;2022-07-12T02:53:30;1.73;;;0.60;;
40991;SDS011;29633;49.168;9.848;2022-07-12T02:55:57;1.20;;;0.60;;
40991;SDS011;29633;49.168;9.848;2022-07-12T02:58:23;2.25;;;0.80;;
40991;SDS011;29633;49.168;9.848;2022-07-12T03:00:48;0.88;;;0.80;;
40991;SDS011;29633;49.168;9.848;2022-07-12T03:03:14;1.30;;;0.80;;
40991;SDS011;29633;49.168;9.848;2022-07-12T03:05:41;1.00;;;0.70;;
40991;SDS011;29633;49.168;9.848;2022-07-12T03:08:08;1.05;;;0.73;;
40991;SDS011;29633;49.168;9.848;2022-07-12T03:10:35;0.93;;;0.85;;
40991;SDS011;29633;49.168;9.848;2022-07-12T03:13:01;1.77;;;0.82;;
40991;SDS011;29633;49.168;9.848;2022-07-12T03:15:28;0.80;;;0.73;;
40991;SDS011;29633;49.168;9.848;2022-07-12T03:17:55;1.30;;;0.80;;
40991;SDS011;29633;49.168;9.848;2022-07-12T03:20:22;1.55;;;0.82;;
40991;SDS011;29633;49.168;9.848;2022-07-12T03:22:48;2.03;;;0.88;;
40991;SDS011;29633;49.168;9.848;2022-07-12T03:25:16;1.40;;;0.95;;
40991;SDS011;29633;49.168;9.848;2022-07-12T03:27:42;1.08;;;0.80;;
40991;SDS011;29633;49.168;9.848;2022-07-12T03:30:08;1.45;;;0.70;;
40991;SDS011;29633;49.168;9.848;2022-07-12T03:32:35;0.85;;;0.70;;
40991;SDS011;29633;49.168;9.848;2022-07-12T03:35:01;1.00;;;0.70;;
40991;SDS011;29633;49.168;9.848;2022-07-12T03:37:28;1.00;;;0.80;;
40991;SDS011;29633;49.168;9.848;2022-07-12T03:40:06;0.90;;;0.75;;
40991;SDS011;29633;49.168;9.848;2022-07-12T03:42:33;1.65;;;0.77;;
40991;SDS011;29633;49.168;9.848;2022-07-12T03:45:00;2.05;;;0.88;;
40991;SDS011;29633;49.168;9.848;2022-07-12T03:47:26;1.00;;;0.90;;
40991;SDS011;29633;49.168;9.848;2022-07-12T03:49:51;1.63;;;1.00;;
40991;SDS011;29633;49.168;9.848;2022-07-12T03:52:17;2.42;;;0.90;;
40991;SDS011;29633;49.168;9.848;2022-07-12T03:54:43;1.30;;;0.70;;
40991;SDS011;29633;49.168;9.848;2022-07-12T03:57:08;1.17;;;0.80;;
40991;SDS011;29633;49.168;9.848;2022-07-12T03:59:40;1.05;;;0.82;;
40991;SDS011;29633;49.168;9.848;2022-07-12T04:02:07;1.20;;;0.90;;
40991;SDS011;29633;49.168;9.848;2022-07-12T04:04:33;1.00;;;0.75;;
40991;SDS011;29633;49.168;9.848;2022-07-12T04:06:59;1.05;;;0.80;;
40991;SDS011;29633;49.168;9.848;2022-07-12T04:09:25;1.27;;;0.80;;
40991;SDS011;29633;49.168;9.848;2022-07-12T04:11:51;1.27;;;0.80;;
40991;SDS011;29633;49.168;9.848;2022-07-12T04:14:17;1.27;;;0.90;;
40991;SDS011;29633;49.168;9.848;2022-07-12T04:16:42;1.00;;;0.88;;
40991;SDS011;29633;49.168;9.848;2022-07-12T04:19:09;0.82;;;0.70;;
40991;SDS011;29633;49.168;9.848;2022-07-12T04:21:35;1.50;;;0.77;;
40991;SDS011;29633;49.168;9.848;2022-07-12T04:24:02;1.17;;;0.88;;
40991;SDS011;29633;49.168;9.848;2022-07-12T04:26:29;1.25;;;0.70;;
40991;SDS011;29633;49.168;9.848;2022-07-12T04:28:56;0.93;;;0.80;;
40991;SDS011;29633;49.168;9.848;2022-07-12T04:31:22;1.27;;;0.88;;
40991;SDS011;29633;49.168;9.848;2022-07-12T04:33:48;0.80;;;0.80;;
40991;SDS011;29633;49.168;9.848;2022-07-12T04:36:17;1.10;;;0.75;;
40991;SDS011;29633;49.168;9.848;2022-07-12T04:38:43;0.73;;;0.73;;
40991;SDS011;29633;49.168;9.848;2022-07-12T04:41:09;0.90;;;0.63;;
40991;SDS011;29633;49.168;9.848;2022-07-12T04:43:35;1.02;;;0.90;;
40991;SDS011;29633;49.168;9.848;2022-07-12T04:46:07;1.20;;;0.90;;
40991;SDS011;29633;49.168;9.848;2022-07-12T04:48:33;0.80;;;0.80;;
40991;SDS011;29633;49.168;9.848;2022-07-12T04:51:00;0.95;;;0.88;;
40991;SDS011;29633;49.168;9.848;2022-07-12T04:53:26;0.70;;;0.70;;
40991;SDS011;29633;49.168;9.848;2022-07-12T04:55:53;1.48;;;0.88;;
40991;SDS011;29633;49.168;9.848;2022-07-12T04:58:20;1.10;;;1.00;;
40991;SDS011;29633;49.168;9.848;2022-07-12T05:00:46;0.90;;;0.90;;
40991;SDS011;29633;49.168;9.848;2022-07-12T05:03:12;1.00;;;0.90;;
40991;SDS011;29633;49.168;9.848;2022-07-12T05:05:38;1.70;;;1.00;;
40991;SDS011;29633;49.168;9.848;2022-07-12T05:08:04;0.98;;;0.90;;
40991;SDS011;29633;49.168;9.848;2022-07-12T05:10:29;1.10;;;1.00;;
40991;SDS011;29633;49.168;9.848;2022-07-12T05:12:55;1.98;;;0.90;;
40991;SDS011;29633;49.168;9.848;2022-07-12T05:15:21;1.27;;;0.90;;
40991;SDS011;29633;49.168;9.848;2022-07-12T05:17:47;0.80;;;0.80;;
40991;SDS011;29633;49.168;9.848;2022-07-12T05:20:12;0.65;;;0.65;;
40991;SDS011;29633;49.168;9.848;2022-07-12T05:22:38;0.93;;;0.82;;
40991;SDS011;29633;49.168;9.848;2022-07-12T05:25:06;1.00;;;0.90;;
40991;SDS011;29633;49.168;9.848;2022-07-12T05:27:33;1.00;;;0.70;;
40991;SDS011;29633;49.168;9.848;2022-07-12T05:30:00;0.75;;;0.70;;
40991;SDS011;29633;49.168;9.848;2022-07-12T05:32:26;0.77;;;0.60;;
40991;SDS011;29633;49.168;9.848;2022-07-12T05:34:52;0.80;;;0.70;;
40991;SDS011;29633;49.168;9.848;2022-07-12T05:37:18;1.05;;;0.57;;
40991;SDS011;29633;49.168;9.848;2022-07-12T05:39:48;2.45;;;0.60;;
40991;SDS011;29633;49.168;9.848;2022-07-12T05:42:14;2.08;;;0.70;;
40991;SDS011;29633;49.168;9.848;2022-07-12T05:44:40;1.23;;;0.55;;
40991;SDS011;29633;49.168;9.848;2022-07-12T05:47:05;0.60;;;0.50;;
40991;SDS011;29633;49.168;9.848;2022-07-12T05:49:31;0.40;;;0.40;;
40991;SDS011;29633;49.168;9.848;2022-07-12T05:51:57;0.68;;;0.45;;
40991;SDS011;29633;49.168;9.848;2022-07-12T05:54:41;0.60;;;0.40;;
40991;SDS011;29633;49.168;9.848;2022-07-12T05:57:07;0.60;;;0.40;;
40991;SDS011;29633;49.168;9.848;2022-07-12T05:59:34;0.40;;;0.38;;
40991;SDS011;29633;49.168;9.848;2022-07-12T06:02:00;0.40;;;0.38;;
40991;SDS011;29633;49.168;9.848;2022-07-12T06:04:26;0.32;;;0.30;;
40991;SDS011;29633;49.168;9.848;2022-07-12T06:06:52;1.08;;;0.30;;
40991;SDS011;29633;49.168;9.848;2022-07-12T06:09:18;0.35;;;0.28;;
40991;SDS011;29633;49.168;9.848;2022-07-12T06:11:43;0.35;;;0.30;;
40991;SDS011;29633;49.168;9.848;2022-07-12T06:14:09;0.30;;;0.20;;
40991;SDS011;29633;49.168;9.848;2022-07-12T06:16:35;0.30;;;0.20;;
40991;SDS011;29633;49.168;9.848;2022-07-12T06:19:00;0.32;;;0.20;;
40991;SDS011;29633;49.168;9.848;2022-07-12T06:21:26;0.35;;;0.30;;
40991;SDS011;29633;49.168;9.848;2022-07-12T06:23:52;1.40;;;0.20;;
40991;SDS011;29633;49.168;9.848;2022-07-12T06:26:18;0.43;;;0.22;;
40991;SDS011;29633;49.168;9.848;2022-07-12T06:28:44;0.30;;;0.20;;
40991;SDS011;29633;49.168;9.848;2022-07-12T06:31:09;0.85;;;0.30;;
40991;SDS011;29633;49.168;9.848;2022-07-12T06:33:35;0.20;;;0.20;;
40991;SDS011;29633;49.168;9.848;2022-07-12T06:36:01;0.10;;;0.10;;
40991;SDS011;29633;49.168;9.848;2022-07-12T06:38:26;0.22;;;0.20;;
40991;SDS011;29633;49.168;9.848;2022-07-12T06:40:52;0.25;;;0.25;;
40991;SDS011;29633;49.168;9.848;2022-07-12T06:43:18;0.30;;;0.20;;
40991;SDS011;29633;49.168;9.848;2022-07-12T06:45:44;0.30;;;0.28;;
40991;SDS011;29633;49.168;9.848;2022-07-12T06:48:09;0.40;;;0.30;;
40991;SDS011;29633;49.168;9.848;2022-07-12T06:50:35;0.80;;;0.30;;
40991;SDS011;29633;49.168;9.848;2022-07-12T06:53:01;0.50;;;0.25;;
40991;SDS011;29633;49.168;9.848;2022-07-12T06:55:27;0.30;;;0.30;;
40991;SDS011;29633;49.168;9.848;2022-07-12T06:57:54;0.43;;;0.40;;
40991;SDS011;29633;49.168;9.848;2022-07-12T07:00:20;0.38;;;0.38;;
40991;SDS011;29633;49.168;9.848;2022-07-12T07:02:46;0.52;;;0.30;;
40991;SDS011;29633;49.168;9.848;2022-07-12T07:05:12;0.30;;;0.30;;
40991;SDS011;29633;49.168;9.848;2022-07-12T07:07:40;0.30;;;0.30;;
40991;SDS011;29633;49.168;9.848;2022-07-12T07:10:06;1.48;;;0.20;;
40991;SDS011;29633;49.168;9.848;2022-07-12T07:12:32;0.30;;;0.22;;
40991;SDS011;29633;49.168;9.848;2022-07-12T07:14:58;0.20;;;0.20;;
40991;SDS011;29633;49.168;9.848;2022-07-12T07:17:24;0.20;;;0.20;;
40991;SDS011;29633;49.168;9.848;2022-07-12T07:19:50;0.22;;;0.17;;
40991;SDS011;29633;49.168;9.848;2022-07-12T07:22:16;0.10;;;0.10;;
40991;SDS011;29633;49.168;9.848;2022-07-12T07:24:41;0.25;;;0.10;;
40991;SDS011;29633;49.168;9.848;2022-07-12T07:27:07;0.20;;;0.10;;
40991;SDS011;29633;49.168;9.848;2022-07-12T07:29:34;0.10;;;0.10;;
40991;SDS011;29633;49.168;9.848;2022-07-12T07:32:29;0.20;;;0.10;;
40991;SDS011;29633;49.168;9.848;2022-07-12T07:34:55;0.13;;;0.10;;
40991;SDS011;29633;49.168;9.848;2022-07-12T07:37:20;0.22;;;0.10;;
40991;SDS011;29633;49.168;9.848;2022-07-12T07:39:48;0.17;;;0.08;;
40991;SDS011;29633;49.168;9.848;2022-07-12T07:42:14;0.10;;;0.10;;
40991;SDS011;29633;49.168;9.848;2022-07-12T07:44:40;0.10;;;0.10;;
40991;SDS011;29633;49.168;9.848;2022-07-12T07:47:06;0.10;;;0.03;;
40991;SDS011;29633;49.168;9.848;2022-07-12T07:49:32;0.30;;;0.10;;
40991;SDS011;29633;49.168;9.848;2022-07-12T07:51:57;0.15;;;0.10;;
40991;SDS011;29633;49.168;9.848;2022-07-12T07:54:23;0.10;;;0.03;;
40991;SDS011;29633;49.168;9.848;2022-07-12T07:56:49;0.15;;;0.10;;
40991;SDS011;29633;49.168;9.848;2022-07-12T07:59:14;0.20;;;0.17;;
40991;SDS011;29633;49.168;9.848;2022-07-12T08:01:40;0.30;;;0.10;;
40991;SDS011;29633;49.168;9.848;2022-07-12T08:04:13;0.20;;;0.13;;
40991;SDS011;29633;49.168;9.848;2022-07-12T08:06:40;0.10;;;0.10;;
40991;SDS011;29633;49.168;9.848;2022-07-12T08:09:08;0.40;;;0.10;;
40991;SDS011;29633;49.168;9.848;2022-07-12T08:11:34;0.10;;;0.10;;
40991;SDS011;29633;49.168;9.848;2022-07-12T08:14:01;0.20;;;0.20;;
40991;SDS011;29633;49.168;9.848;2022-07-12T08:16:30;0.10;;;0.10;;
40991;SDS011;29633;49.168;9.848;2022-07-12T08:18:57;0.20;;;0.20;;
40991;SDS011;29633;49.168;9.848;2022-07-12T08:21:23;0.10;;;0.10;;
40991;SDS011;29633;49.168;9.848;2022-07-12T08:23:49;0.00;;;0.00;;
40991;SDS011;29633;49.168;9.848;2022-07-12T08:26:15;0.10;;;0.10;;
40991;SDS011;29633;49.168;9.848;2022-07-12T08:28:41;0.10;;;0.00;;
40991;SDS011;29633;49.168;9.848;2022-07-12T08:31:07;0.20;;;0.20;;
40991;SDS011;29633;49.168;9.848;2022-07-12T08:33:34;0.20;;;0.10;;
40991;SDS011;29633;49.168;9.848;2022-07-12T08:36:00;0.20;;;0.10;;
40991;SDS011;29633;49.168;9.848;2022-07-12T08:38:26;0.10;;;0.10;;
40991;SDS011;29633;49.168;9.848;2022-07-12T08:40:52;0.10;;;0.10;;
40991;SDS011;29633;49.168;9.848;2022-07-12T08:43:18;0.17;;;0.10;;
40991;SDS011;29633;49.168;9.848;2022-07-12T08:45:43;0.10;;;0.10;;
40991;SDS011;29633;49.168;9.848;2022-07-12T08:48:09;0.10;;;0.10;;
40991;SDS011;29633;49.168;9.848;2022-07-12T08:50:35;0.10;;;0.10;;
40991;SDS011;29633;49.168;9.848;2022-07-12T08:53:01;0.40;;;0.13;;
40991;SDS011;29633;49.168;9.848;2022-07-12T08:58:01;0.10;;;0.08;;
40991;SDS011;29633;49.168;9.848;2022-07-12T09:00:40;0.10;;;0.05;;
40991;SDS011;29633;49.168;9.848;2022-07-12T09:03:06;0.00;;;0.00;;
40991;SDS011;29633;49.168;9.848;2022-07-12T09:05:32;0.05;;;0.00;;
40991;SDS011;29633;49.168;9.848;2022-07-12T09:08:08;0.20;;;0.10;;
40991;SDS011;29633;49.168;9.848;2022-07-12T09:10:36;0.10;;;0.10;;
40991;SDS011;29633;49.168;9.848;2022-07-12T09:16:23;0.20;;;0.10;;
40991;SDS011;29633;49.168;9.848;2022-07-12T09:18:51;0.10;;;0.10;;
40991;SDS011;29633;49.168;9.848;2022-07-12T09:21:36;0.10;;;0.10;;
40991;SDS011;29633;49.168;9.848;2022-07-12T09:24:02;0.10;;;0.10;;
40991;SDS011;29633;49.168;9.848;2022-07-12T09:26:32;0.10;;;0.10;;
40991;SDS011;29633;49.168;9.848;2022-07-12T09:29:04;0.15;;;0.10;;
40991;SDS011;29633;49.168;9.848;2022-07-12T09:31:44;0.10;;;0.10;;
40991;SDS011;29633;49.168;9.848;2022-07-12T09:34:35;0.57;;;0.10;;
40991;SDS011;29633;49.168;9.848;2022-07-12T09:37:20;0.10;;;0.10;;
40991;SDS011;29633;49.168;9.848;2022-07-12T09:39:48;0.35;;;0.20;;
40991;SDS011;29633;49.168;9.848;2022-07-12T09:42:15;0.20;;;0.20;;
40991;SDS011;29633;49.168;9.848;2022-07-12T09:44:42;0.10;;;0.10;;
40991;SDS011;29633;49.168;9.848;2022-07-12T09:47:09;0.00;;;0.00;;
40991;SDS011;29633;49.168;9.848;2022-07-12T09:49:41;0.35;;;0.10;;
40991;SDS011;29633;49.168;9.848;2022-07-12T09:52:12;0.10;;;0.00;;
40991;SDS011;29633;49.168;9.848;2022-07-12T09:54:45;0.15;;;0.10;;
40991;SDS011;29633;49.168;9.848;2022-07-12T09:57:30;0.00;;;0.00;;
40991;SDS011;29633;49.168;9.848;2022-07-12T09:59:58;0.10;;;0.10;;
40991;SDS011;29633;49.168;9.848;2022-07-12T10:02:26;0.30;;;0.10;;
40991;SDS011;29633;49.168;9.848;2022-07-12T10:04:53;0.10;;;0.10;;
40991;SDS011;29633;49.168;9.848;2022-07-12T10:07:19;0.20;;;0.10;;
40991;SDS011;29633;49.168;9.848;2022-07-12T10:09:50;0.10;;;0.10;;
40991;SDS011;29633;49.168;9.848;2022-07-12T10:12:19;0.10;;;0.10;;
40991;SDS011;29633;49.168;9.848;2022-07-12T10:14:47;0.20;;;0.10;;
40991;SDS011;29633;49.168;9.848;2022-07-12T10:17:22;0.10;;;0.10;;
40991;SDS011;29633;49.168;9.848;2022-07-12T10:19:49;0.10;;;0.10;;
40991;SDS011;29633;49.168;9.848;2022-07-12T10:22:34;0.10;;;0.10;;
40991;SDS011;29633;49.168;9.848;2022-07-12T10:25:00;0.00;;;0.00;;
40991;SDS011;29633;49.168;9.848;2022-07-12T10:27:27;0.35;;;0.00;;
40991;SDS011;29633;49.168;9.848;2022-07-12T10:30:11;0.10;;;0.10;;
40991;SDS011;29633;49.168;9.848;2022-07-12T10:32:43;0.10;;;0.10;;
40991;SDS011;29633;49.168;9.848;2022-07-12T10:38:13;0.00;;;0.00;;
40991;SDS011;29633;49.168;9.848;2022-07-12T10:40:37;0.10;;;0.03;;
40991;SDS011;29633;49.168;9.848;2022-07-12T10:45:42;0.08;;;0.00;;
40991;SDS011;29633;49.168;9.848;2022-07-12T10:58:40;0.35;;;0.10;;
40991;SDS011;29633;49.168;9.848;2022-07-12T11:01:15;1.85;;;0.10;;
40991;SDS011;29633;49.168;9.848;2022-07-12T11:06:28;0.00;;;0.00;;
40991;SDS011;29633;49.168;9.848;2022-07-12T11:08:58;0.30;;;0.08;;
40991;SDS011;29633;49.168;9.848;2022-07-12T11:11:34;0.00;;;0.00;;
40991;SDS011;29633;49.168;9.848;2022-07-12T11:14:10;0.10;;;0.00;;
40991;SDS011;29633;49.168;9.848;2022-07-12T11:16:43;0.00;;;0.00;;
40991;SDS011;29633;49.168;9.848;2022-07-12T11:19:10;0.10;;;0.10;;
40991;SDS011;29633;49.168;9.848;2022-07-12T11:21:36;0.20;;;0.10;;
40991;SDS011;29633;49.168;9.848;2022-07-12T11:24:02;0.10;;;0.10;;
40991;SDS011;29633;49.168;9.848;2022-07-12T11:26:39;0.17;;;0.08;;
40991;SDS011;29633;49.168;9.848;2022-07-12T11:29:05;0.20;;;0.10;;
40991;SDS011;29633;49.168;9.848;2022-07-12T11:31:31;0.20;;;0.10;;
40991;SDS011;29633;49.168;9.848;2022-07-12T11:33:58;0.50;;;0.20;;
40991;SDS011;29633;49.168;9.848;2022-07-12T11:36:24;0.35;;;0.20;;
40991;SDS011;29633;49.168;9.848;2022-07-12T11:38:52;0.17;;;0.10;;
40991;SDS011;29633;49.168;9.848;2022-07-12T11:41:18;0.10;;;0.10;;
40991;SDS011;29633;49.168;9.848;2022-07-12T11:43:44;0.10;;;0.10;;
40991;SDS011;29633;49.168;9.848;2022-07-12T11:46:10;0.10;;;0.10;;
40991;SDS011;29633;49.168;9.848;2022-07-12T11:48:37;0.15;;;0.10;;
40991;SDS011;29633;49.168;9.848;2022-07-12T11:51:11;2.95;;;0.30;;
40991;SDS011;29633;49.168;9.848;2022-07-12T11:53:38;0.25;;;0.10;;
40991;SDS011;29633;49.168;9.848;2022-07-12T11:56:06;0.30;;;0.10;;
40991;SDS011;29633;49.168;9.848;2022-07-12T11:58:33;0.55;;;0.10;;
40991;SDS011;29633;49.168;9.848;2022-07-12T12:01:03;0.00;;;0.00;;
40991;SDS011;29633;49.168;9.848;2022-07-12T12:03:41;0.50;;;0.03;;
40991;SDS011;29633;49.168;9.848;2022-07-12T12:06:11;0.10;;;0.10;;
40991;SDS011;29633;49.168;9.848;2022-07-12T12:08:37;1.55;;;0.10;;
40991;SDS011;29633;49.168;9.848;2022-07-12T12:11:02;0.05;;;0.05;;
40991;SDS011;29633;49.168;9.848;2022-07-12T12:13:29;0.10;;;0.10;;
40991;SDS011;29633;49.168;9.848;2022-07-12T12:15:56;0.10;;;0.10;;
40991;SDS011;29633;49.168;9.848;2022-07-12T12:18:28;0.20;;;0.13;;
40991;SDS011;29633;49.168;9.848;2022-07-12T12:21:00;0.88;;;0.10;;
40991;SDS011;29633;49.168;9.848;2022-07-12T12:23:32;0.13;;;0.05;;
40991;SDS011;29633;49.168;9.848;2022-07-12T12:28:55;0.47;;;0.10;;
40991;SDS011;29633;49.168;9.848;2022-07-12T12:31:22;0.10;;;0.10;;
40991;SDS011;29633;49.168;9.848;2022-07-12T12:33:49;0.10;;;0.05;;
40991;SDS011;29633;49.168;9.848;2022-07-12T12:36:22;0.10;;;0.05;;
40991;SDS011;29633;49.168;9.848;2022-07-12T12:38:52;0.40;;;0.10;;
40991;SDS011;29633;49.168;9.848;2022-07-12T12:41:29;0.10;;;0.10;;
40991;SDS011;29633;49.168;9.848;2022-07-12T12:44:04;0.82;;;0.10;;
40991;SDS011;29633;49.168;9.848;2022-07-12T12:50:06;0.08;;;0.08;;
40991;SDS011;29633;49.168;9.848;2022-07-12T12:52:16;0.45;;;0.05;;
40991;SDS011;29633;49.168;9.848;2022-07-12T12:54:42;0.17;;;0.10;;
40991;SDS011;29633;49.168;9.848;2022-07-12T12:57:09;0.20;;;0.10;;
40991;SDS011;29633;49.168;9.848;2022-07-12T12:59:36;0.32;;;0.10;;
40991;SDS011;29633;49.168;9.848;2022-07-12T13:02:03;0.10;;;0.10;;
40991;SDS011;29633;49.168;9.848;2022-07-12T13:04:31;0.40;;;0.10;;
40991;SDS011;29633;49.168;9.848;2022-07-12T13:06:59;0.10;;;0.10;;
40991;SDS011;29633;49.168;9.848;2022-07-12T13:09:26;0.17;;;0.10;;
40991;SDS011;29633;49.168;9.848;2022-07-12T13:11:52;0.15;;;0.10;;
40991;SDS011;29633;49.168;9.848;2022-07-12T13:14:18;0.10;;;0.10;;
40991;SDS011;29633;49.168;9.848;2022-07-12T13:16:44;0.20;;;0.10;;
40991;SDS011;29633;49.168;9.848;2022-07-12T13:19:09;0.10;;;0.03;;
40991;SDS011;29633;49.168;9.848;2022-07-12T13:21:35;0.10;;;0.10;;
40991;SDS011;29633;49.168;9.848;2022-07-12T13:24:01;1.33;;;0.10;;
40991;SDS011;29633;49.168;9.848;2022-07-12T13:26:27;0.80;;;0.10;;
40991;SDS011;29633;49.168;9.848;2022-07-12T13:28:53;0.15;;;0.00;;
40991;SDS011;29633;49.168;9.848;2022-07-12T13:31:19;0.32;;;0.10;;
40991;SDS011;29633;49.168;9.848;2022-07-12T13:33:45;0.25;;;0.10;;
40991;SDS011;29633;49.168;9.848;2022-07-12T13:36:11;0.30;;;0.10;;
40991;SDS011;29633;49.168;9.848;2022-07-12T13:38:38;0.20;;;0.10;;
40991;SDS011;29633;49.168;9.848;2022-07-12T13:41:04;0.38;;;0.10;;
40991;SDS011;29633;49.168;9.848;2022-07-12T13:43:30;0.70;;;0.10;;
40991;SDS011;29633;49.168;9.848;2022-07-12T13:45:56;0.10;;;0.10;;
40991;SDS011;29633;49.168;9.848;2022-07-12T13:48:22;0.15;;;0.10;;
40991;SDS011;29633;49.168;9.848;2022-07-12T13:50:48;0.70;;;0.10;;
40991;SDS011;29633;49.168;9.848;2022-07-12T13:53:16;0.45;;;0.10;;
40991;SDS011;29633;49.168;9.848;2022-07-12T13:55:43;0.20;;;0.20;;
40991;SDS011;29633;49.168;9.848;2022-07-12T13:58:10;0.20;;;0.10;;
40991;SDS011;29633;49.168;9.848;2022-07-12T14:00:38;0.10;;;0.10;;
40991;SDS011;29633;49.168;9.848;2022-07-12T14:03:05;0.10;;;0.10;;
40991;SDS011;29633;49.168;9.848;2022-07-12T14:05:31;0.20;;;0.13;;
40991;SDS011;29633;49.168;9.848;2022-07-12T14:07:57;0.63;;;0.10;;
40991;SDS011;29633;49.168;9.848;2022-07-12T14:10:23;0.15;;;0.10;;
40991;SDS011;29633;49.168;9.848;2022-07-12T14:12:49;0.00;;;0.00;;
40991;SDS011;29633;49.168;9.848;2022-07-12T14:15:16;0.22;;;0.13;;
40991;SDS011;29633;49.168;9.848;2022-07-12T14:18:00;0.30;;;0.10;;
40991;SDS011;29633;49.168;9.848;2022-07-12T14:20:26;0.10;;;0.10;;
40991;SDS011;29633;49.168;9.848;2022-07-12T14:22:52;0.20;;;0.10;;
40991;SDS011;29633;49.168;9.848;2022-07-12T14:25:18;1.48;;;0.10;;
40991;SDS011;29633;49.168;9.848;2022-07-12T14:27:45;0.10;;;0.10;;
40991;SDS011;29633;49.168;9.848;2022-07-12T14:30:12;0.10;;;0.10;;
40991;SDS011;29633;49.168;9.848;2022-07-12T14:32:38;0.15;;;0.10;;
40991;SDS011;29633;49.168;9.848;2022-07-12T14:35:05;0.20;;;0.10;;
40991;SDS011;29633;49.168;9.848;2022-07-12T14:37:33;0.52;;;0.20;;
40991;SDS011;29633;49.168;9.848;2022-07-12T14:39:59;0.10;;;0.10;;
40991;SDS011;29633;49.168;9.848;2022-07-12T14:42:30;0.20;;;0.10;;
40991;SDS011;29633;49.168;9.848;2022-07-12T14:44:55;0.20;;;0.10;;
40991;SDS011;29633;49.168;9.848;2022-07-12T14:47:22;0.20;;;0.10;;
40991;SDS011;29633;49.168;9.848;2022-07-12T14:49:48;0.13;;;0.10;;
40991;SDS011;29633;49.168;9.848;2022-07-12T14:52:14;0.15;;;0.10;;
40991;SDS011;29633;49.168;9.848;2022-07-12T14:54:40;0.20;;;0.15;;
40991;SDS011;29633;49.168;9.848;2022-07-12T14:57:06;0.10;;;0.10;;
40991;SDS011;29633;49.168;9.848;2022-07-12T14:59:32;0.30;;;0.15;;
40991;SDS011;29633;49.168;9.848;2022-07-12T15:01:58;0.22;;;0.10;;
40991;SDS011;29633;49.168;9.848;2022-07-12T15:04:24;0.10;;;0.10;;
40991;SDS011;29633;49.168;9.848;2022-07-12T15:06:50;0.40;;;0.10;;
40991;SDS011;29633;49.168;9.848;2022-07-12T15:09:16;0.10;;;0.10;;
40991;SDS011;29633;49.168;9.848;2022-07-12T15:11:42;0.65;;;0.10;;
40991;SDS011;29633;49.168;9.848;2022-07-12T15:14:07;0.75;;;0.75;;
40991;SDS011;29633;49.168;9.848;2022-07-12T15:16:33;1.40;;;1.05;;
40991;SDS011;29633;49.168;9.848;2022-07-12T15:18:59;1.08;;;0.60;;
40991;SDS011;29633;49.168;9.848;2022-07-12T15:21:25;6.22;;;4.55;;